sensor_id;sensor_type;location;lat;lon;timestamp;temperature;humidity
4293;DHT22;2160;51.172;6.808;2022-10-16T04:02:46;17.50;99.90
4293;DHT22;2160;51.172;6.808;2022-10-16T04:05:12;17.40;99.90
4293;DHT22;2160;51.172;6.808;2022-10-16T04:07:39;17.50;99.90
4293;DHT22;2160;51.172;6.808;2022-10-16T04:10:07;17.40;99.90
4293;DHT22;2160;51.172;6.808;2022-10-16T04:12:34;17.50;99.90
4293;DHT22;2160;51.172;6.808;2022-10-16T04:15:01;17.50;99.90
4293;DHT22;2160;51.172;6.808;2022-10-16T04:17:28;17.50;99.90
4293;DHT22;2160;51.172;6.808;2022-10-16T04:19:56;17.50;99.90
4293;DHT22;2160;51.172;6.808;2022-10-16T04:22:23;17.50;99.90
4293;DHT22;2160;51.172;6.808;2022-10-16T04:24:50;17.40;99.90
4293;DHT22;2160;51.172;6.808;2022-10-16T04:27:17;17.60;99.90
4293;DHT22;2160;51.172;6.808;2022-10-16T04:29:43;17.40;99.90
4293;DHT22;2160;51.172;6.808;2022-10-16T04:32:10;17.60;99.90
4293;DHT22;2160;51.172;6.808;2022-10-16T04:34:39;17.50;99.90
4293;DHT22;2160;51.172;6.808;2022-10-16T04:37:08;17.50;99.90
4293;DHT22;2160;51.172;6.808;2022-10-16T04:39:35;17.50;99.90
4293;DHT22;2160;51.172;6.808;2022-10-16T04:42:02;17.50;99.90
4293;DHT22;2160;51.172;6.808;2022-10-16T04:44:29;17.60;99.90
4293;DHT22;2160;51.172;6.808;2022-10-16T04:46:56;17.50;99.90
4293;DHT22;2160;51.172;6.808;2022-10-16T04:49:23;17.70;99.90
4293;DHT22;2160;51.172;6.808;2022-10-16T04:51:50;17.40;99.90
4293;DHT22;2160;51.172;6.808;2022-10-16T04:54:18;17.60;99.90
4293;DHT22;2160;51.172;6.808;2022-10-16T04:56:45;17.40;99.90
4293;DHT22;2160;51.172;6.808;2022-10-16T04:59:13;17.50;99.90
4293;DHT22;2160;51.172;6.808;2022-10-16T05:01:41;17.50;99.90
4293;DHT22;2160;51.172;6.808;2022-10-16T05:04:08;17.40;99.90
4293;DHT22;2160;51.172;6.808;2022-10-16T05:06:35;17.40;99.90
4293;DHT22;2160;51.172;6.808;2022-10-16T05:09:03;17.20;99.90
4293;DHT22;2160;51.172;6.808;2022-10-16T05:11:32;17.20;99.90
4293;DHT22;2160;51.172;6.808;2022-10-16T05:13:59;17.30;99.90
4293;DHT22;2160;51.172;6.808;2022-10-16T05:16:27;17.30;99.90
4293;DHT22;2160;51.172;6.808;2022-10-16T05:18:54;17.20;99.90
4293;DHT22;2160;51.172;6.808;2022-10-16T05:21:21;17.30;99.90
4293;DHT22;2160;51.172;6.808;2022-10-16T05:23:48;17.30;99.90
4293;DHT22;2160;51.172;6.808;2022-10-16T05:26:14;17.40;99.90
4293;DHT22;2160;51.172;6.808;2022-10-16T05:28:42;17.10;99.90
4293;DHT22;2160;51.172;6.808;2022-10-16T05:31:09;17.20;99.90
4293;DHT22;2160;51.172;6.808;2022-10-16T05:33:36;17.20;99.90
4293;DHT22;2160;51.172;6.808;2022-10-16T05:36:05;17.20;99.90
4293;DHT22;2160;51.172;6.808;2022-10-16T05:38:33;17.10;99.90
4293;DHT22;2160;51.172;6.808;2022-10-16T05:41:00;16.90;99.90
4293;DHT22;2160;51.172;6.808;2022-10-16T05:43:27;16.90;99.90
4293;DHT22;2160;51.172;6.808;2022-10-16T05:45:56;16.90;99.90
4293;DHT22;2160;51.172;6.808;2022-10-16T05:48:24;16.90;99.90
4293;DHT22;2160;51.172;6.808;2022-10-16T05:50:56;16.90;99.90
4293;DHT22;2160;51.172;6.808;2022-10-16T05:53:23;16.80;99.90
4293;DHT22;2160;51.172;6.808;2022-10-16T05:55:54;16.80;99.90
4293;DHT22;2160;51.172;6.808;2022-10-16T05:58:22;16.80;99.90
4293;DHT22;2160;51.172;6.808;2022-10-16T06:00:57;16.80;99.90
4293;DHT22;2160;51.172;6.808;2022-10-16T06:03:25;16.80;99.90
4293;DHT22;2160;51.172;6.808;2022-10-16T06:05:52;16.80;99.90
4293;DHT22;2160;51.172;6.808;2022-10-16T06:08:21;16.80;99.90
4293;DHT22;2160;51.172;6.808;2022-10-16T06:10:48;16.90;99.90
4293;DHT22;2160;51.172;6.808;2022-10-16T06:13:15;16.90;99.90
4293;DHT22;2160;51.172;6.808;2022-10-16T06:15:42;17.00;99.90
4293;DHT22;2160;51.172;6.808;2022-10-16T06:18:11;16.90;99.90
4293;DHT22;2160;51.172;6.808;2022-10-16T06:20:38;16.90;99.90
4293;DHT22;2160;51.172;6.808;2022-10-16T06:23:06;16.90;99.90
4293;DHT22;2160;51.172;6.808;2022-10-16T06:25:32;16.90;99.90
4293;DHT22;2160;51.172;6.808;2022-10-16T06:27:59;16.90;99.90
4293;DHT22;2160;51.172;6.808;2022-10-16T06:30:26;17.10;99.90
4293;DHT22;2160;51.172;6.808;2022-10-16T06:32:53;17.10;99.90
4293;DHT22;2160;51.172;6.808;2022-10-16T06:35:21;17.00;99.90
4293;DHT22;2160;51.172;6.808;2022-10-16T06:37:49;17.00;99.90
4293;DHT22;2160;51.172;6.808;2022-10-16T06:40:16;17.10;99.90
4293;DHT22;2160;51.172;6.808;2022-10-16T06:42:43;17.10;99.90
4293;DHT22;2160;51.172;6.808;2022-10-16T06:45:10;17.00;99.90
4293;DHT22;2160;51.172;6.808;2022-10-16T06:47:38;17.00;99.90
4293;DHT22;2160;51.172;6.808;2022-10-16T06:50:06;17.00;99.90
4293;DHT22;2160;51.172;6.808;2022-10-16T06:52:34;17.10;99.90
4293;DHT22;2160;51.172;6.808;2022-10-16T06:55:01;17.20;99.90
4293;DHT22;2160;51.172;6.808;2022-10-16T06:57:29;17.10;99.90
4293;DHT22;2160;51.172;6.808;2022-10-16T06:59:56;17.10;99.90
4293;DHT22;2160;51.172;6.808;2022-10-16T07:02:22;17.10;99.90
4293;DHT22;2160;51.172;6.808;2022-10-16T07:04:50;17.20;99.90
4293;DHT22;2160;51.172;6.808;2022-10-16T07:07:16;17.20;99.90
4293;DHT22;2160;51.172;6.808;2022-10-16T07:09:45;17.20;99.90
4293;DHT22;2160;51.172;6.808;2022-10-16T07:12:12;17.20;99.90
4293;DHT22;2160;51.172;6.808;2022-10-16T07:14:38;17.30;99.90
4293;DHT22;2160;51.172;6.808;2022-10-16T07:17:05;17.30;99.90
4293;DHT22;2160;51.172;6.808;2022-10-16T07:19:32;17.40;99.90
4293;DHT22;2160;51.172;6.808;2022-10-16T07:21:59;17.30;99.90
4293;DHT22;2160;51.172;6.808;2022-10-16T07:24:26;17.30;99.90
4293;DHT22;2160;51.172;6.808;2022-10-16T07:26:54;17.30;99.90
4293;DHT22;2160;51.172;6.808;2022-10-16T07:29:21;17.30;99.90
4293;DHT22;2160;51.172;6.808;2022-10-16T07:31:49;17.20;99.90
4293;DHT22;2160;51.172;6.808;2022-10-16T07:34:18;17.20;99.90
4293;DHT22;2160;51.172;6.808;2022-10-16T07:36:48;17.30;99.90
4293;DHT22;2160;51.172;6.808;2022-10-16T07:39:15;17.30;99.90
4293;DHT22;2160;51.172;6.808;2022-10-16T07:41:41;17.40;99.90
4293;DHT22;2160;51.172;6.808;2022-10-16T07:44:10;17.30;99.90
4293;DHT22;2160;51.172;6.808;2022-10-16T07:46:37;17.20;99.90
4293;DHT22;2160;51.172;6.808;2022-10-16T07:49:03;17.20;99.90
4293;DHT22;2160;51.172;6.808;2022-10-16T07:51:30;17.30;99.90
4293;DHT22;2160;51.172;6.808;2022-10-16T07:53:57;17.40;99.90
4293;DHT22;2160;51.172;6.808;2022-10-16T07:56:24;17.60;99.90
4293;DHT22;2160;51.172;6.808;2022-10-16T07:58:52;17.30;99.90
4293;DHT22;2160;51.172;6.808;2022-10-16T08:01:21;17.40;99.90
4293;DHT22;2160;51.172;6.808;2022-10-16T08:03:50;17.50;99.90
4293;DHT22;2160;51.172;6.808;2022-10-16T08:06:18;17.60;99.90
4293;DHT22;2160;51.172;6.808;2022-10-16T08:08:46;17.70;99.90
4293;DHT22;2160;51.172;6.808;2022-10-16T08:11:13;17.90;99.90
4293;DHT22;2160;51.172;6.808;2022-10-16T08:13:40;18.00;99.90
4293;DHT22;2160;51.172;6.808;2022-10-16T08:16:07;18.00;99.90
4293;DHT22;2160;51.172;6.808;2022-10-16T08:18:38;18.00;99.90
4293;DHT22;2160;51.172;6.808;2022-10-16T08:21:06;18.10;99.90
4293;DHT22;2160;51.172;6.808;2022-10-16T08:23:33;18.30;99.90
4293;DHT22;2160;51.172;6.808;2022-10-16T08:26:03;18.30;99.90
4293;DHT22;2160;51.172;6.808;2022-10-16T08:28:30;18.60;99.90
4293;DHT22;2160;51.172;6.808;2022-10-16T08:31:05;18.50;99.90
4293;DHT22;2160;51.172;6.808;2022-10-16T08:33:32;18.50;99.90
4293;DHT22;2160;51.172;6.808;2022-10-16T08:36:02;18.60;99.90
4293;DHT22;2160;51.172;6.808;2022-10-16T08:38:29;18.50;99.90
4293;DHT22;2160;51.172;6.808;2022-10-16T08:41:02;18.40;99.90
4293;DHT22;2160;51.172;6.808;2022-10-16T08:43:49;18.50;99.90
4293;DHT22;2160;51.172;6.808;2022-10-16T08:46:29;18.60;99.90
4293;DHT22;2160;51.172;6.808;2022-10-16T08:49:03;18.60;99.90
4293;DHT22;2160;51.172;6.808;2022-10-16T08:51:35;18.70;99.90
4293;DHT22;2160;51.172;6.808;2022-10-16T08:54:04;18.70;99.90
4293;DHT22;2160;51.172;6.808;2022-10-16T08:56:31;18.80;99.90
4293;DHT22;2160;51.172;6.808;2022-10-16T08:58:59;18.90;99.90
4293;DHT22;2160;51.172;6.808;2022-10-16T09:01:36;19.00;99.90
4293;DHT22;2160;51.172;6.808;2022-10-16T09:04:26;19.10;99.90
4293;DHT22;2160;51.172;6.808;2022-10-16T09:06:59;19.10;99.90
4293;DHT22;2160;51.172;6.808;2022-10-16T09:09:37;19.20;99.90
4293;DHT22;2160;51.172;6.808;2022-10-16T09:12:12;19.40;99.90
4293;DHT22;2160;51.172;6.808;2022-10-16T09:14:52;19.30;99.90
4293;DHT22;2160;51.172;6.808;2022-10-16T09:17:40;19.50;99.90
4293;DHT22;2160;51.172;6.808;2022-10-16T09:20:19;19.50;99.90
4293;DHT22;2160;51.172;6.808;2022-10-16T09:22:53;19.60;99.90
4293;DHT22;2160;51.172;6.808;2022-10-16T09:25:21;19.70;99.90
4293;DHT22;2160;51.172;6.808;2022-10-16T09:27:52;19.80;99.90
4293;DHT22;2160;51.172;6.808;2022-10-16T09:30:21;20.10;99.90
4293;DHT22;2160;51.172;6.808;2022-10-16T09:32:52;20.00;99.90
4293;DHT22;2160;51.172;6.808;2022-10-16T09:35:20;20.00;99.90
4293;DHT22;2160;51.172;6.808;2022-10-16T09:37:50;20.10;99.90
4293;DHT22;2160;51.172;6.808;2022-10-16T09:40:26;20.20;99.90
4293;DHT22;2160;51.172;6.808;2022-10-16T09:43:01;20.20;99.90
4293;DHT22;2160;51.172;6.808;2022-10-16T09:45:28;20.30;99.90
4293;DHT22;2160;51.172;6.808;2022-10-16T09:47:55;20.30;99.90
4293;DHT22;2160;51.172;6.808;2022-10-16T09:50:24;20.40;99.90
4293;DHT22;2160;51.172;6.808;2022-10-16T09:53:03;20.40;99.90
4293;DHT22;2160;51.172;6.808;2022-10-16T09:55:32;20.60;99.90
4293;DHT22;2160;51.172;6.808;2022-10-16T09:57:58;20.50;99.90
4293;DHT22;2160;51.172;6.808;2022-10-16T10:00:25;20.70;99.90
4293;DHT22;2160;51.172;6.808;2022-10-16T10:02:53;20.70;99.90
4293;DHT22;2160;51.172;6.808;2022-10-16T10:05:22;20.60;99.90
4293;DHT22;2160;51.172;6.808;2022-10-16T10:07:55;20.50;99.90
4293;DHT22;2160;51.172;6.808;2022-10-16T10:10:25;20.50;99.90
4293;DHT22;2160;51.172;6.808;2022-10-16T10:12:54;20.50;99.90
4293;DHT22;2160;51.172;6.808;2022-10-16T10:15:22;20.50;99.90
4293;DHT22;2160;51.172;6.808;2022-10-16T10:17:52;20.60;99.90
4293;DHT22;2160;51.172;6.808;2022-10-16T10:20:25;20.70;99.90
4293;DHT22;2160;51.172;6.808;2022-10-16T10:22:53;20.80;99.90
4293;DHT22;2160;51.172;6.808;2022-10-16T10:25:42;20.80;99.90
4293;DHT22;2160;51.172;6.808;2022-10-16T10:28:22;20.80;99.90
4293;DHT22;2160;51.172;6.808;2022-10-16T10:30:58;21.00;99.90
4293;DHT22;2160;51.172;6.808;2022-10-16T10:33:31;20.90;99.90
4293;DHT22;2160;51.172;6.808;2022-10-16T10:36:08;21.00;99.90
4293;DHT22;2160;51.172;6.808;2022-10-16T10:38:43;20.80;99.90
4293;DHT22;2160;51.172;6.808;2022-10-16T10:44:42;21.10;99.90
4293;DHT22;2160;51.172;6.808;2022-10-16T10:47:19;21.20;99.90
4293;DHT22;2160;51.172;6.808;2022-10-16T10:50:00;21.30;99.90
4293;DHT22;2160;51.172;6.808;2022-10-16T10:52:38;21.30;99.90
4293;DHT22;2160;51.172;6.808;2022-10-16T10:55:18;21.40;99.90
4293;DHT22;2160;51.172;6.808;2022-10-16T10:58:02;21.40;99.90
4293;DHT22;2160;51.172;6.808;2022-10-16T11:00:44;21.60;99.90
4293;DHT22;2160;51.172;6.808;2022-10-16T11:03:27;21.50;99.90
4293;DHT22;2160;51.172;6.808;2022-10-16T11:06:05;21.60;99.90
4293;DHT22;2160;51.172;6.808;2022-10-16T11:08:36;21.50;99.90
4293;DHT22;2160;51.172;6.808;2022-10-16T11:11:08;21.40;99.90
4293;DHT22;2160;51.172;6.808;2022-10-16T11:13:40;21.50;99.90
4293;DHT22;2160;51.172;6.808;2022-10-16T11:16:22;21.40;99.90
4293;DHT22;2160;51.172;6.808;2022-10-16T11:18:56;21.70;99.90
4293;DHT22;2160;51.172;6.808;2022-10-16T11:21:28;21.70;99.90
4293;DHT22;2160;51.172;6.808;2022-10-16T11:24:00;21.70;99.90
4293;DHT22;2160;51.172;6.808;2022-10-16T11:26:32;21.80;99.90
4293;DHT22;2160;51.172;6.808;2022-10-16T11:29:03;21.80;99.90
4293;DHT22;2160;51.172;6.808;2022-10-16T11:31:38;21.90;99.90
4293;DHT22;2160;51.172;6.808;2022-10-16T11:34:12;21.90;99.90
4293;DHT22;2160;51.172;6.808;2022-10-16T11:36:45;22.00;99.90
4293;DHT22;2160;51.172;6.808;2022-10-16T11:39:19;22.10;99.90
4293;DHT22;2160;51.172;6.808;2022-10-16T11:41:49;22.10;99.90
4293;DHT22;2160;51.172;6.808;2022-10-16T11:47:24;22.10;99.90
4293;DHT22;2160;51.172;6.808;2022-10-16T11:49:57;22.10;99.90
4293;DHT22;2160;51.172;6.808;2022-10-16T11:52:30;22.10;99.90
4293;DHT22;2160;51.172;6.808;2022-10-16T11:55:04;22.20;99.90
4293;DHT22;2160;51.172;6.808;2022-10-16T11:57:34;22.40;99.90
4293;DHT22;2160;51.172;6.808;2022-10-16T12:00:09;22.40;99.90
4293;DHT22;2160;51.172;6.808;2022-10-16T12:02:54;22.40;99.90
4293;DHT22;2160;51.172;6.808;2022-10-16T12:05:28;22.50;99.90
4293;DHT22;2160;51.172;6.808;2022-10-16T12:08:06;22.60;99.90
4293;DHT22;2160;51.172;6.808;2022-10-16T12:10:35;22.80;99.90
4293;DHT22;2160;51.172;6.808;2022-10-16T12:13:03;23.00;99.90
4293;DHT22;2160;51.172;6.808;2022-10-16T12:15:32;22.90;99.90
4293;DHT22;2160;51.172;6.808;2022-10-16T12:18:00;23.00;99.90
4293;DHT22;2160;51.172;6.808;2022-10-16T12:20:29;23.00;99.90
4293;DHT22;2160;51.172;6.808;2022-10-16T12:23:00;23.10;99.90
4293;DHT22;2160;51.172;6.808;2022-10-16T12:25:30;23.30;99.90
4293;DHT22;2160;51.172;6.808;2022-10-16T12:28:02;23.20;99.90
4293;DHT22;2160;51.172;6.808;2022-10-16T12:30:32;23.10;99.90
4293;DHT22;2160;51.172;6.808;2022-10-16T12:33:02;23.20;99.90
4293;DHT22;2160;51.172;6.808;2022-10-16T12:35:32;23.10;99.90
4293;DHT22;2160;51.172;6.808;2022-10-16T12:38:17;23.10;99.90
4293;DHT22;2160;51.172;6.808;2022-10-16T12:40:45;23.10;99.90
4293;DHT22;2160;51.172;6.808;2022-10-16T12:43:26;23.00;99.90
4293;DHT22;2160;51.172;6.808;2022-10-16T12:46:03;23.00;99.90
4293;DHT22;2160;51.172;6.808;2022-10-16T12:48:32;23.20;99.90
4293;DHT22;2160;51.172;6.808;2022-10-16T12:51:10;23.10;99.90
4293;DHT22;2160;51.172;6.808;2022-10-16T12:53:37;23.00;99.90
4293;DHT22;2160;51.172;6.808;2022-10-16T12:56:12;23.10;99.90
4293;DHT22;2160;51.172;6.808;2022-10-16T12:58:59;23.20;99.90
4293;DHT22;2160;51.172;6.808;2022-10-16T13:01:42;23.30;99.90
4293;DHT22;2160;51.172;6.808;2022-10-16T13:04:32;23.50;99.90
4293;DHT22;2160;51.172;6.808;2022-10-16T13:07:14;23.50;99.90
4293;DHT22;2160;51.172;6.808;2022-10-16T13:09:49;23.40;99.90
4293;DHT22;2160;51.172;6.808;2022-10-16T13:12:29;23.30;99.90
4293;DHT22;2160;51.172;6.808;2022-10-16T13:18:13;23.60;99.90
4293;DHT22;2160;51.172;6.808;2022-10-16T13:20:55;23.40;99.90
4293;DHT22;2160;51.172;6.808;2022-10-16T13:23:26;23.40;99.90
4293;DHT22;2160;51.172;6.808;2022-10-16T13:26:05;23.40;99.90
4293;DHT22;2160;51.172;6.808;2022-10-16T13:28:37;23.50;99.90
4293;DHT22;2160;51.172;6.808;2022-10-16T13:31:05;23.70;99.90
4293;DHT22;2160;51.172;6.808;2022-10-16T13:33:34;23.90;99.90
4293;DHT22;2160;51.172;6.808;2022-10-16T13:36:04;23.80;99.90
4293;DHT22;2160;51.172;6.808;2022-10-16T13:38:33;24.00;99.90
4293;DHT22;2160;51.172;6.808;2022-10-16T13:41:01;24.00;99.90
4293;DHT22;2160;51.172;6.808;2022-10-16T13:43:32;24.10;99.90
4293;DHT22;2160;51.172;6.808;2022-10-16T13:46:02;24.10;99.90
4293;DHT22;2160;51.172;6.808;2022-10-16T13:48:32;24.30;99.90
4293;DHT22;2160;51.172;6.808;2022-10-16T13:51:01;24.40;99.90
4293;DHT22;2160;51.172;6.808;2022-10-16T13:53:31;24.20;99.90
4293;DHT22;2160;51.172;6.808;2022-10-16T13:55:59;24.30;99.90
4293;DHT22;2160;51.172;6.808;2022-10-16T13:58:26;24.40;99.90
4293;DHT22;2160;51.172;6.808;2022-10-16T14:00:56;24.50;99.90
4293;DHT22;2160;51.172;6.808;2022-10-16T14:03:24;24.70;99.90
4293;DHT22;2160;51.172;6.808;2022-10-16T14:05:53;24.40;99.90
4293;DHT22;2160;51.172;6.808;2022-10-16T14:08:21;23.90;99.90
4293;DHT22;2160;51.172;6.808;2022-10-16T14:10:52;23.70;99.90
4293;DHT22;2160;51.172;6.808;2022-10-16T14:13:24;23.50;99.90
4293;DHT22;2160;51.172;6.808;2022-10-16T14:15:52;23.50;99.90
4293;DHT22;2160;51.172;6.808;2022-10-16T14:18:23;23.60;99.90
4293;DHT22;2160;51.172;6.808;2022-10-16T14:20:51;23.80;99.90
4293;DHT22;2160;51.172;6.808;2022-10-16T14:23:22;23.90;99.90
4293;DHT22;2160;51.172;6.808;2022-10-16T14:25:50;23.80;99.90
4293;DHT22;2160;51.172;6.808;2022-10-16T14:28:18;23.30;99.90
4293;DHT22;2160;51.172;6.808;2022-10-16T14:30:50;23.20;99.90
4293;DHT22;2160;51.172;6.808;2022-10-16T14:33:23;23.20;99.90
4293;DHT22;2160;51.172;6.808;2022-10-16T14:36:03;23.20;99.90
4293;DHT22;2160;51.172;6.808;2022-10-16T14:38:30;23.40;99.90
4293;DHT22;2160;51.172;6.808;2022-10-16T14:41:00;23.50;99.90
4293;DHT22;2160;51.172;6.808;2022-10-16T14:43:32;23.70;99.90
4293;DHT22;2160;51.172;6.808;2022-10-16T14:45:59;23.80;99.90
4293;DHT22;2160;51.172;6.808;2022-10-16T14:48:28;23.80;99.90
4293;DHT22;2160;51.172;6.808;2022-10-16T14:50:55;23.60;99.90
4293;DHT22;2160;51.172;6.808;2022-10-16T14:53:22;23.60;99.90
4293;DHT22;2160;51.172;6.808;2022-10-16T14:55:49;23.50;99.90
4293;DHT22;2160;51.172;6.808;2022-10-16T14:58:20;23.50;99.90
4293;DHT22;2160;51.172;6.808;2022-10-16T15:00:48;23.60;99.90
4293;DHT22;2160;51.172;6.808;2022-10-16T15:03:15;23.70;99.90
4293;DHT22;2160;51.172;6.808;2022-10-16T15:05:42;23.70;99.90
4293;DHT22;2160;51.172;6.808;2022-10-16T15:08:10;23.70;99.90
4293;DHT22;2160;51.172;6.808;2022-10-16T15:10:40;23.70;99.90
4293;DHT22;2160;51.172;6.808;2022-10-16T15:13:11;23.70;99.90
4293;DHT22;2160;51.172;6.808;2022-10-16T15:15:42;23.70;99.90
4293;DHT22;2160;51.172;6.808;2022-10-16T15:18:09;23.60;99.90
4293;DHT22;2160;51.172;6.808;2022-10-16T15:20:38;23.60;99.90
4293;DHT22;2160;51.172;6.808;2022-10-16T15:23:09;23.60;99.90
4293;DHT22;2160;51.172;6.808;2022-10-16T15:25:39;23.50;99.90
4293;DHT22;2160;51.172;6.808;2022-10-16T15:28:08;23.50;99.90
4293;DHT22;2160;51.172;6.808;2022-10-16T15:30:36;23.50;99.90
4293;DHT22;2160;51.172;6.808;2022-10-16T15:33:08;23.50;99.90
4293;DHT22;2160;51.172;6.808;2022-10-16T15:35:37;23.40;99.90
4293;DHT22;2160;51.172;6.808;2022-10-16T15:38:03;23.40;99.90
4293;DHT22;2160;51.172;6.808;2022-10-16T15:40:30;23.40;99.90
4293;DHT22;2160;51.172;6.808;2022-10-16T15:42:57;23.40;99.90
4293;DHT22;2160;51.172;6.808;2022-10-16T15:45:24;23.30;99.90
4293;DHT22;2160;51.172;6.808;2022-10-16T15:47:51;23.30;99.90
4293;DHT22;2160;51.172;6.808;2022-10-16T15:50:19;23.30;99.90
4293;DHT22;2160;51.172;6.808;2022-10-16T15:52:46;23.20;99.90
4293;DHT22;2160;51.172;6.808;2022-10-16T15:55:14;23.20;99.90
4293;DHT22;2160;51.172;6.808;2022-10-16T15:57:41;23.10;99.90
4293;DHT22;2160;51.172;6.808;2022-10-16T16:00:11;23.00;99.90
4293;DHT22;2160;51.172;6.808;2022-10-16T16:02:38;23.00;99.90
4293;DHT22;2160;51.172;6.808;2022-10-16T16:05:06;22.90;99.90
4293;DHT22;2160;51.172;6.808;2022-10-16T16:07:35;22.80;99.90
4293;DHT22;2160;51.172;6.808;2022-10-16T16:10:04;22.60;99.90
4293;DHT22;2160;51.172;6.808;2022-10-16T16:12:31;22.50;99.90
4293;DHT22;2160;51.172;6.808;2022-10-16T16:14:58;22.50;99.90
4293;DHT22;2160;51.172;6.808;2022-10-16T16:17:25;22.60;99.90
4293;DHT22;2160;51.172;6.808;2022-10-16T16:19:52;22.60;99.90
4293;DHT22;2160;51.172;6.808;2022-10-16T16:22:19;22.50;99.90
4293;DHT22;2160;51.172;6.808;2022-10-16T16:24:47;22.50;99.90
4293;DHT22;2160;51.172;6.808;2022-10-16T16:27:14;22.40;99.90
4293;DHT22;2160;51.172;6.808;2022-10-16T16:29:41;22.30;99.90
4293;DHT22;2160;51.172;6.808;2022-10-16T16:32:08;22.40;99.90
4293;DHT22;2160;51.172;6.808;2022-10-16T16:34:35;22.30;99.90
4293;DHT22;2160;51.172;6.808;2022-10-16T16:37:02;22.30;99.90
4293;DHT22;2160;51.172;6.808;2022-10-16T16:39:29;22.30;99.90
4293;DHT22;2160;51.172;6.808;2022-10-16T16:41:57;22.20;99.90
4293;DHT22;2160;51.172;6.808;2022-10-16T16:44:25;22.10;99.90
4293;DHT22;2160;51.172;6.808;2022-10-16T16:46:52;22.10;99.90
4293;DHT22;2160;51.172;6.808;2022-10-16T16:49:20;22.20;99.90
4293;DHT22;2160;51.172;6.808;2022-10-16T16:51:47;22.20;99.90
4293;DHT22;2160;51.172;6.808;2022-10-16T16:54:14;22.20;99.90
4293;DHT22;2160;51.172;6.808;2022-10-16T16:56:41;22.10;99.90
4293;DHT22;2160;51.172;6.808;2022-10-16T16:59:15;22.10;99.90
4293;DHT22;2160;51.172;6.808;2022-10-16T17:01:43;22.20;99.90
4293;DHT22;2160;51.172;6.808;2022-10-16T17:04:10;22.10;99.90
4293;DHT22;2160;51.172;6.808;2022-10-16T17:06:39;22.00;99.90
4293;DHT22;2160;51.172;6.808;2022-10-16T17:09:06;22.10;99.90
4293;DHT22;2160;51.172;6.808;2022-10-16T17:11:35;22.10;99.90
4293;DHT22;2160;51.172;6.808;2022-10-16T17:14:02;22.10;99.90
4293;DHT22;2160;51.172;6.808;2022-10-16T17:16:34;22.00;99.90
4293;DHT22;2160;51.172;6.808;2022-10-16T17:19:03;21.90;99.90
4293;DHT22;2160;51.172;6.808;2022-10-16T17:21:31;21.80;99.90
4293;DHT22;2160;51.172;6.808;2022-10-16T17:23:58;21.80;99.90
4293;DHT22;2160;51.172;6.808;2022-10-16T17:26:26;21.80;99.90
4293;DHT22;2160;51.172;6.808;2022-10-16T17:28:54;21.70;99.90
4293;DHT22;2160;51.172;6.808;2022-10-16T17:31:24;21.80;99.90
4293;DHT22;2160;51.172;6.808;2022-10-16T17:33:52;21.70;99.90
4293;DHT22;2160;51.172;6.808;2022-10-16T17:36:20;21.80;99.90
4293;DHT22;2160;51.172;6.808;2022-10-16T17:38:48;21.70;99.90
4293;DHT22;2160;51.172;6.808;2022-10-16T17:41:17;21.70;99.90
4293;DHT22;2160;51.172;6.808;2022-10-16T17:43:44;21.80;99.90
4293;DHT22;2160;51.172;6.808;2022-10-16T17:46:13;21.80;99.90
4293;DHT22;2160;51.172;6.808;2022-10-16T17:48:41;21.70;99.90
4293;DHT22;2160;51.172;6.808;2022-10-16T17:51:12;21.70;99.90
4293;DHT22;2160;51.172;6.808;2022-10-16T17:53:39;21.70;99.90
4293;DHT22;2160;51.172;6.808;2022-10-16T17:56:08;21.80;99.90
4293;DHT22;2160;51.172;6.808;2022-10-16T17:58:36;21.70;99.90
4293;DHT22;2160;51.172;6.808;2022-10-16T18:01:11;21.70;99.90
4293;DHT22;2160;51.172;6.808;2022-10-16T18:03:38;21.60;99.90
4293;DHT22;2160;51.172;6.808;2022-10-16T18:06:05;21.60;99.90
4293;DHT22;2160;51.172;6.808;2022-10-16T18:08:34;21.70;99.90
4293;DHT22;2160;51.172;6.808;2022-10-16T18:11:02;21.60;99.90
4293;DHT22;2160;51.172;6.808;2022-10-16T18:13:30;21.70;99.90
4293;DHT22;2160;51.172;6.808;2022-10-16T18:16:00;21.60;99.90
4293;DHT22;2160;51.172;6.808;2022-10-16T18:18:27;21.50;99.90
4293;DHT22;2160;51.172;6.808;2022-10-16T18:20:57;21.50;99.90
4293;DHT22;2160;51.172;6.808;2022-10-16T18:23:24;21.50;99.90
4293;DHT22;2160;51.172;6.808;2022-10-16T18:25:53;21.50;99.90
4293;DHT22;2160;51.172;6.808;2022-10-16T18:28:20;21.40;99.90
4293;DHT22;2160;51.172;6.808;2022-10-16T18:30:54;21.50;99.90
4293;DHT22;2160;51.172;6.808;2022-10-16T18:33:22;21.40;99.90
4293;DHT22;2160;51.172;6.808;2022-10-16T18:35:48;21.50;99.90
4293;DHT22;2160;51.172;6.808;2022-10-16T18:38:15;21.40;99.90
4293;DHT22;2160;51.172;6.808;2022-10-16T18:40:42;21.20;99.90
4293;DHT22;2160;51.172;6.808;2022-10-16T18:43:11;21.10;99.90
4293;DHT22;2160;51.172;6.808;2022-10-16T18:45:38;21.10;99.90
4293;DHT22;2160;51.172;6.808;2022-10-16T18:48:05;21.00;99.90
4293;DHT22;2160;51.172;6.808;2022-10-16T18:50:32;21.00;99.90
4293;DHT22;2160;51.172;6.808;2022-10-16T18:52:59;21.00;99.90
4293;DHT22;2160;51.172;6.808;2022-10-16T18:55:26;21.20;99.90
4293;DHT22;2160;51.172;6.808;2022-10-16T18:57:54;21.20;99.90
4293;DHT22;2160;51.172;6.808;2022-10-16T19:00:22;21.20;99.90
4293;DHT22;2160;51.172;6.808;2022-10-16T19:02:49;21.30;99.90
4293;DHT22;2160;51.172;6.808;2022-10-16T19:05:16;21.40;99.90
4293;DHT22;2160;51.172;6.808;2022-10-16T19:07:46;21.40;99.90
4293;DHT22;2160;51.172;6.808;2022-10-16T19:10:14;21.50;99.90
4293;DHT22;2160;51.172;6.808;2022-10-16T19:12:41;21.50;99.90
4293;DHT22;2160;51.172;6.808;2022-10-16T19:15:08;21.60;99.90
4293;DHT22;2160;51.172;6.808;2022-10-16T19:17:37;21.60;99.90
4293;DHT22;2160;51.172;6.808;2022-10-16T19:20:05;21.50;99.90
4293;DHT22;2160;51.172;6.808;2022-10-16T19:22:32;21.50;99.90
4293;DHT22;2160;51.172;6.808;2022-10-16T19:25:17;21.50;99.90
4293;DHT22;2160;51.172;6.808;2022-10-16T19:27:46;21.50;99.90
4293;DHT22;2160;51.172;6.808;2022-10-16T19:30:14;21.50;99.90
4293;DHT22;2160;51.172;6.808;2022-10-16T19:32:42;21.40;99.90
4293;DHT22;2160;51.172;6.808;2022-10-16T19:35:10;21.40;99.90
4293;DHT22;2160;51.172;6.808;2022-10-16T19:37:37;21.50;99.90
4293;DHT22;2160;51.172;6.808;2022-10-16T19:40:05;21.40;99.90
4293;DHT22;2160;51.172;6.808;2022-10-16T19:42:32;21.40;99.90
4293;DHT22;2160;51.172;6.808;2022-10-16T19:45:00;21.40;99.90
4293;DHT22;2160;51.172;6.808;2022-10-16T19:47:27;21.40;99.90
4293;DHT22;2160;51.172;6.808;2022-10-16T19:49:56;21.40;99.90
4293;DHT22;2160;51.172;6.808;2022-10-16T19:52:23;21.40;99.90
4293;DHT22;2160;51.172;6.808;2022-10-16T19:54:49;21.30;99.90
4293;DHT22;2160;51.172;6.808;2022-10-16T19:57:18;21.30;99.90
4293;DHT22;2160;51.172;6.808;2022-10-16T19:59:45;21.30;99.90
4293;DHT22;2160;51.172;6.808;2022-10-16T20:02:12;21.30;99.90
4293;DHT22;2160;51.172;6.808;2022-10-16T20:04:39;21.20;99.90
4293;DHT22;2160;51.172;6.808;2022-10-16T20:07:07;21.20;99.90
4293;DHT22;2160;51.172;6.808;2022-10-16T20:09:34;21.20;99.90
4293;DHT22;2160;51.172;6.808;2022-10-16T20:12:02;21.20;99.90
4293;DHT22;2160;51.172;6.808;2022-10-16T20:14:29;21.20;99.90
4293;DHT22;2160;51.172;6.808;2022-10-16T20:16:56;21.10;99.90
4293;DHT22;2160;51.172;6.808;2022-10-16T20:19:23;21.10;99.90
4293;DHT22;2160;51.172;6.808;2022-10-16T20:21:50;21.10;99.90
4293;DHT22;2160;51.172;6.808;2022-10-16T20:24:18;21.00;99.90
4293;DHT22;2160;51.172;6.808;2022-10-16T20:26:45;21.00;99.90
4293;DHT22;2160;51.172;6.808;2022-10-16T20:29:12;21.00;99.90